Terminal Aerodrome Forecast
Issued by NWS

Home | Current Version | Previous Version | Graphics & Text | Print | Product List | Glossary On
Versions: 1 2 3 4 5 6 7 8 9 10 11 12 13 14 15 16 17 18 19 20
875
FTUS42 KMHX 181722
TAFOAJ
TAF
KOAJ 181722Z 1818/1918 15010G18KT 5SM -SHRA BR OVC020
     FM182300 16009KT P6SM VCSH OVC025
     FM190600 15007KT 5SM -SHRA SCT005 OVC020
     FM191100 17010G18KT 3SM +SHRA SCT005 OVC015
      AMD LTD TO CLD VIS AND WIND=

USA.gov is the U.S. government's official web portal to all federal, state and local government web resources and services.